createdAt,value
2023-05-09T00:01:34.896Z,9.66
2023-05-09T00:04:05.945Z,9.78
2023-05-09T00:06:36.596Z,9.93
2023-05-09T00:09:07.631Z,10.07
2023-05-09T00:11:38.384Z,10.19
2023-05-09T00:14:12.705Z,10.31
2023-05-09T00:16:43.472Z,10.44
2023-05-09T00:19:14.510Z,10.55
2023-05-09T00:21:45.203Z,10.67
2023-05-09T00:24:16.189Z,10.75
2023-05-09T00:26:46.946Z,10.83
2023-05-09T00:29:20.306Z,10.92
2023-05-09T00:31:51.061Z,11.00
2023-05-09T00:34:22.778Z,11.07
2023-05-09T00:36:53.534Z,11.14
2023-05-09T00:39:24.697Z,11.21
2023-05-09T00:41:56.024Z,11.25
2023-05-09T00:44:29.832Z,11.29
2023-05-09T00:47:00.513Z,11.32
2023-05-09T00:49:31.517Z,11.38
2023-05-09T00:52:02.503Z,11.37
2023-05-09T00:54:33.535Z,11.43
2023-05-09T00:57:04.426Z,11.46
2023-05-09T00:59:38.024Z,11.49
2023-05-09T01:02:08.789Z,11.51
2023-05-09T01:04:39.932Z,11.52
2023-05-09T01:07:17.267Z,11.55
2023-05-09T01:09:54.068Z,11.54
2023-05-09T01:12:31.278Z,11.53
2023-05-09T01:15:12.221Z,11.49
2023-05-09T01:17:53.088Z,11.49
2023-05-09T01:20:34.129Z,11.49
2023-05-09T01:23:23.617Z,11.49
2023-05-09T01:26:04.096Z,11.47
2023-05-09T01:29:06.611Z,11.48
2023-05-09T01:31:44.141Z,11.42
2023-05-09T01:34:17.501Z,11.43
2023-05-09T01:36:52.698Z,11.43
2023-05-09T01:39:25.061Z,11.41
2023-05-09T01:41:58.584Z,11.42
2023-05-09T01:44:32.818Z,11.42
2023-05-09T01:47:08.161Z,11.41
2023-05-09T01:49:40.987Z,11.40
2023-05-09T01:52:14.628Z,11.39
2023-05-09T01:54:46.287Z,11.38
2023-05-09T01:57:18.541Z,11.38
2023-05-09T01:59:51.321Z,11.37
2023-05-09T02:02:25.430Z,11.37
2023-05-09T02:04:59.140Z,11.36
2023-05-09T02:07:32.554Z,11.36
2023-05-09T02:10:05.474Z,11.35
2023-05-09T02:12:38.486Z,11.33
2023-05-09T02:15:11.078Z,11.34
2023-05-09T02:17:48.008Z,11.32
2023-05-09T02:20:19.311Z,11.30
2023-05-09T02:22:51.008Z,11.25
2023-05-09T02:25:21.781Z,11.28
2023-05-09T02:27:53.291Z,11.25
2023-05-09T02:30:27.427Z,11.23
2023-05-09T02:33:06.710Z,11.21
2023-05-09T02:35:38.512Z,11.20
2023-05-09T02:38:10.495Z,11.19
2023-05-09T02:40:42.317Z,11.18
2023-05-09T02:43:13.388Z,11.17
2023-05-09T02:45:44.237Z,11.16
2023-05-09T02:48:17.747Z,11.14
2023-05-09T02:50:48.669Z,11.10
2023-05-09T02:53:19.585Z,11.01
2023-05-09T02:55:50.797Z,11.07
2023-05-09T02:58:21.684Z,11.06
2023-05-09T03:00:52.390Z,11.04
2023-05-09T03:03:26.271Z,11.04
2023-05-09T03:05:57.172Z,11.04
2023-05-09T03:08:28.049Z,11.04
2023-05-09T03:10:59.058Z,11.04
2023-05-09T03:13:29.937Z,11.04
2023-05-09T03:16:02.344Z,11.05
2023-05-09T03:18:35.847Z,11.05
2023-05-09T03:21:06.699Z,11.05
2023-05-09T03:23:40.014Z,11.05
2023-05-09T03:26:10.671Z,11.05
2023-05-09T03:28:41.634Z,11.05
2023-05-09T03:31:12.810Z,11.04
2023-05-09T03:33:46.345Z,11.03
2023-05-09T03:36:18.765Z,11.04
2023-05-09T03:38:49.569Z,11.04
2023-05-09T03:41:24.468Z,11.04
2023-05-09T03:43:55.259Z,11.01
2023-05-09T03:46:26.099Z,11.03
2023-05-09T03:48:59.520Z,11.03
2023-05-09T03:51:30.359Z,11.02
2023-05-09T03:54:01.441Z,11.02
2023-05-09T03:56:33.201Z,11.02
2023-05-09T03:59:04.032Z,10.97
2023-05-09T04:01:38.258Z,11.02
2023-05-09T04:04:13.769Z,11.03
2023-05-09T04:06:44.696Z,11.03
2023-05-09T04:09:16.085Z,11.01
2023-05-09T04:11:46.978Z,11.00
2023-05-09T04:14:19.344Z,10.97
2023-05-09T04:16:50.212Z,10.98
2023-05-09T04:19:23.671Z,10.95
2023-05-09T04:21:54.421Z,10.95
2023-05-09T04:24:25.398Z,10.95
2023-05-09T04:26:56.196Z,10.94
2023-05-09T04:29:29.844Z,10.94
2023-05-09T04:32:01.947Z,10.95
2023-05-09T04:34:36.031Z,10.94
2023-05-09T04:37:13.648Z,10.93
2023-05-09T04:39:45.501Z,10.92
2023-05-09T04:42:23.241Z,10.92
2023-05-09T04:44:54.030Z,10.89
2023-05-09T04:47:26.279Z,10.87
2023-05-09T04:49:59.857Z,10.82
2023-05-09T04:52:30.783Z,10.81
2023-05-09T04:55:01.818Z,10.79
2023-05-09T04:57:37.410Z,10.76
2023-05-09T05:00:14.253Z,10.71
2023-05-09T05:02:45.330Z,10.67
2023-05-09T05:05:25.094Z,10.59
2023-05-09T05:07:57.506Z,10.54
2023-05-09T05:10:33.797Z,10.47
2023-05-09T05:13:09.960Z,10.39
2023-05-09T05:15:45.630Z,10.31
2023-05-09T05:18:17.603Z,10.23
2023-05-09T05:20:50.949Z,10.17
2023-05-09T05:23:22.081Z,10.12
2023-05-09T05:25:56.662Z,10.08
2023-05-09T05:28:27.530Z,10.02
2023-05-09T05:30:58.580Z,9.98
2023-05-09T05:33:29.319Z,9.94
2023-05-09T05:36:03.409Z,9.92
2023-05-09T05:38:34.229Z,9.88
2023-05-09T05:41:05.158Z,9.85
2023-05-09T05:43:37.045Z,9.81
2023-05-09T05:46:08.511Z,9.78
2023-05-09T05:48:39.414Z,9.75
2023-05-09T05:51:13.007Z,9.70
2023-05-09T05:53:45.397Z,9.68
2023-05-09T05:56:16.150Z,9.67
2023-05-09T05:58:47.405Z,9.64
2023-05-09T06:01:18.478Z,9.66
2023-05-09T06:03:54.939Z,9.66
2023-05-09T06:06:31.490Z,9.68
2023-05-09T06:09:02.219Z,9.71
2023-05-09T06:11:33.049Z,9.75
2023-05-09T06:14:03.957Z,9.79
2023-05-09T06:16:34.940Z,9.81
2023-05-09T06:19:05.697Z,9.84
2023-05-09T06:21:39.281Z,9.86
2023-05-09T06:24:19.849Z,9.87
2023-05-09T06:26:54.757Z,9.87
2023-05-09T06:29:25.470Z,9.86
2023-05-09T06:31:56.231Z,9.90
2023-05-09T06:34:27.213Z,9.90
2023-05-09T06:37:00.646Z,9.93
2023-05-09T06:39:31.323Z,9.94
2023-05-09T06:42:02.129Z,9.97
2023-05-09T06:44:41.525Z,9.97
2023-05-09T06:47:12.317Z,9.99
2023-05-09T06:49:43.087Z,9.98
2023-05-09T06:52:16.769Z,10.00
2023-05-09T06:54:47.513Z,9.98
2023-05-09T06:57:18.518Z,9.99
2023-05-09T06:59:49.248Z,9.95
2023-05-09T07:02:19.988Z,9.92
2023-05-09T07:04:50.889Z,9.91
2023-05-09T07:07:24.558Z,9.89
2023-05-09T07:10:03.886Z,9.89
2023-05-09T07:12:41.019Z,9.90
2023-05-09T07:15:13.568Z,9.86
2023-05-09T07:17:45.436Z,9.85
2023-05-09T07:20:16.332Z,9.82
2023-05-09T07:22:52.364Z,9.81
2023-05-09T07:25:23.232Z,9.80
2023-05-09T07:27:54.021Z,9.81
2023-05-09T07:30:25.475Z,9.80
2023-05-09T07:32:56.495Z,9.79
2023-05-09T07:35:27.279Z,9.78
2023-05-09T07:38:00.621Z,9.79
2023-05-09T07:40:31.297Z,9.77
2023-05-09T07:43:02.169Z,9.77
2023-05-09T07:45:32.952Z,9.74
2023-05-09T07:48:03.990Z,9.73
2023-05-09T07:50:34.835Z,9.71
2023-05-09T07:53:08.298Z,9.70
2023-05-09T07:55:38.963Z,9.68
2023-05-09T07:58:09.695Z,9.66
2023-05-09T08:00:40.320Z,9.63
2023-05-09T08:03:11.382Z,9.58
2023-05-09T08:05:42.646Z,9.54
2023-05-09T08:08:16.116Z,9.52
2023-05-09T08:10:47.321Z,9.50
2023-05-09T08:13:19.335Z,9.43
2023-05-09T08:15:50.138Z,9.45
2023-05-09T08:18:21.317Z,9.43
2023-05-09T08:20:52.551Z,9.40
2023-05-09T08:23:26.126Z,9.35
2023-05-09T08:25:57.491Z,9.32
2023-05-09T08:28:28.925Z,9.27
2023-05-09T08:30:59.881Z,9.24
2023-05-09T08:33:30.893Z,9.21
2023-05-09T08:36:02.047Z,9.16
2023-05-09T08:38:36.712Z,9.11
2023-05-09T08:41:07.555Z,9.10
2023-05-09T08:43:38.687Z,9.08
2023-05-09T08:46:11.445Z,9.08
2023-05-09T08:48:43.044Z,9.09
2023-05-09T08:51:14.401Z,9.09
2023-05-09T08:53:48.055Z,9.11
2023-05-09T08:56:18.938Z,9.12
2023-05-09T08:58:49.914Z,9.12
2023-05-09T09:01:22.462Z,9.14
2023-05-09T09:03:54.687Z,9.14
2023-05-09T09:06:26.573Z,9.17
2023-05-09T09:09:02.106Z,9.14
2023-05-09T09:11:33.974Z,9.14
2023-05-09T09:14:06.554Z,9.12
2023-05-09T09:16:39.941Z,9.10
2023-05-09T09:19:15.177Z,9.08
2023-05-09T09:21:48.132Z,9.09
2023-05-09T09:24:26.093Z,9.10
2023-05-09T09:26:56.899Z,9.09
2023-05-09T09:29:29.105Z,9.08
2023-05-09T09:31:59.859Z,9.06
2023-05-09T09:34:30.679Z,9.04
2023-05-09T09:37:01.871Z,8.97
2023-05-09T09:39:35.346Z,9.01
2023-05-09T09:42:15.875Z,9.01
2023-05-09T09:44:46.513Z,9.01
2023-05-09T09:47:17.282Z,9.02
2023-05-09T09:49:50.114Z,9.01
2023-05-09T09:52:27.361Z,9.08
2023-05-09T09:55:03.588Z,9.11
2023-05-09T09:57:40.198Z,9.15
2023-05-09T10:00:12.052Z,9.18
2023-05-09T10:02:51.418Z,9.16
2023-05-09T10:05:23.807Z,9.21
2023-05-09T10:07:58.033Z,9.21
2023-05-09T10:10:35.786Z,9.23
2023-05-09T10:13:09.745Z,9.27
2023-05-09T10:15:52.129Z,9.29
2023-05-09T10:18:29.160Z,9.29
2023-05-09T10:21:03.921Z,9.28
2023-05-09T10:23:38.261Z,9.24
2023-05-09T10:26:20.494Z,9.24
2023-05-09T10:28:52.952Z,9.25
2023-05-09T10:31:29.267Z,9.25
2023-05-09T10:34:04.957Z,9.28
2023-05-09T10:36:35.785Z,9.33
2023-05-09T10:39:06.735Z,9.37
2023-05-09T10:41:42.047Z,9.35
2023-05-09T10:44:13.610Z,9.33
2023-05-09T10:46:45.014Z,9.35
2023-05-09T10:49:16.471Z,9.39
2023-05-09T10:51:47.308Z,9.46
2023-05-09T10:54:30.725Z,9.45
2023-05-09T10:57:05.957Z,9.55
2023-05-09T10:59:41.309Z,9.58
2023-05-09T11:02:16.032Z,9.58
2023-05-09T11:04:48.069Z,9.58
2023-05-09T11:07:30.480Z,9.60
2023-05-09T11:10:11.849Z,9.57
2023-05-09T11:13:02.410Z,9.55
2023-05-09T11:15:33.543Z,9.54
2023-05-09T11:18:09.996Z,9.55
2023-05-09T11:20:47.166Z,9.59
2023-05-09T11:23:20.414Z,9.63
2023-05-09T11:25:52.320Z,9.70
2023-05-09T11:28:33.533Z,9.69
2023-05-09T11:31:14.689Z,9.80
2023-05-09T11:33:48.125Z,9.84
2023-05-09T11:36:20.770Z,9.84
2023-05-09T11:38:51.851Z,9.94
2023-05-09T11:41:26.006Z,9.99
2023-05-09T11:44:00.635Z,10.05
2023-05-09T11:46:31.654Z,10.10
2023-05-09T11:49:02.412Z,10.16
2023-05-09T11:51:33.244Z,10.07
2023-05-09T11:54:04.196Z,10.14
2023-05-09T11:56:35.467Z,10.18
2023-05-09T11:59:10.900Z,10.16
2023-05-09T12:01:44.187Z,10.13
2023-05-09T12:04:15.137Z,10.13
2023-05-09T12:06:50.720Z,10.13
2023-05-09T12:09:21.308Z,10.14
2023-05-09T12:11:52.310Z,10.16
2023-05-09T12:14:37.908Z,10.15
2023-05-09T12:17:08.564Z,10.17
2023-05-09T12:19:39.969Z,10.11
2023-05-09T12:22:10.781Z,10.22
2023-05-09T12:24:41.667Z,10.25
2023-05-09T12:27:12.627Z,10.26
2023-05-09T12:29:46.446Z,10.29
2023-05-09T12:32:18.683Z,10.31
2023-05-09T12:34:49.498Z,10.30
2023-05-09T12:37:21.855Z,10.30
2023-05-09T12:40:05.200Z,10.29
2023-05-09T12:42:38.520Z,10.28
2023-05-09T12:45:14.952Z,10.31
2023-05-09T12:47:46.229Z,10.28
2023-05-09T12:50:17.022Z,10.30
2023-05-09T12:53:02.527Z,10.28
2023-05-09T12:55:34.562Z,10.29
2023-05-09T12:58:06.410Z,10.28
2023-05-09T13:00:48.616Z,10.27
2023-05-09T13:03:26.969Z,10.23
2023-05-09T13:05:58.495Z,10.20
2023-05-09T13:08:30.008Z,10.18
2023-05-09T13:11:15.002Z,10.18
2023-05-09T13:13:47.293Z,10.19
2023-05-09T13:16:21.031Z,10.20
2023-05-09T13:18:52.030Z,10.17
2023-05-09T13:21:22.733Z,10.16
2023-05-09T13:23:53.617Z,10.15
2023-05-09T13:26:24.473Z,10.14
2023-05-09T13:28:55.252Z,10.10
2023-05-09T13:31:28.690Z,10.07
2023-05-09T13:33:59.509Z,10.06
2023-05-09T13:36:30.434Z,10.04
2023-05-09T13:39:01.181Z,10.04
2023-05-09T13:41:35.337Z,10.04
2023-05-09T13:44:08.160Z,10.03
2023-05-09T13:46:41.811Z,10.03
2023-05-09T13:49:12.737Z,10.04
2023-05-09T13:51:43.428Z,10.06
2023-05-09T13:54:17.699Z,10.06
2023-05-09T13:56:48.795Z,10.07
2023-05-09T13:59:19.639Z,10.09
2023-05-09T14:01:53.006Z,10.08
2023-05-09T14:04:23.872Z,10.07
2023-05-09T14:06:55.266Z,10.05
2023-05-09T14:09:29.437Z,10.06
2023-05-09T14:12:00.244Z,10.06
2023-05-09T14:14:31.057Z,10.01
2023-05-09T14:17:04.840Z,9.97
2023-05-09T14:19:35.804Z,9.93
2023-05-09T14:22:06.449Z,9.90
2023-05-09T14:24:37.316Z,9.89
2023-05-09T14:27:08.015Z,9.87
2023-05-09T14:29:41.427Z,9.85
2023-05-09T14:32:15.025Z,9.86
2023-05-09T14:34:46.029Z,9.85
2023-05-09T14:37:16.862Z,9.84
2023-05-09T14:39:49.750Z,9.84
2023-05-09T14:42:20.496Z,9.82
2023-05-09T14:44:51.379Z,9.82
2023-05-09T14:47:24.799Z,9.84
2023-05-09T14:49:56.360Z,9.85
2023-05-09T14:52:27.050Z,9.86
2023-05-09T14:55:00.083Z,9.90
2023-05-09T14:57:30.867Z,9.92
2023-05-09T15:00:12.508Z,9.95
2023-05-09T15:02:53.507Z,9.95
2023-05-09T15:05:24.512Z,9.98
2023-05-09T15:07:55.176Z,9.99
2023-05-09T15:10:27.921Z,10.00
2023-05-09T15:12:58.646Z,10.00
2023-05-09T15:15:29.407Z,9.99
2023-05-09T15:18:02.950Z,10.00
2023-05-09T15:20:33.796Z,9.99
2023-05-09T15:23:04.433Z,9.97
2023-05-09T15:25:35.337Z,9.96
2023-05-09T15:28:07.261Z,9.97
2023-05-09T15:30:41.353Z,9.95
2023-05-09T15:33:14.805Z,9.97
2023-05-09T15:35:45.934Z,9.98
2023-05-09T15:38:16.966Z,9.98
2023-05-09T15:40:48.176Z,9.98
2023-05-09T15:43:19.163Z,9.97
2023-05-09T15:45:51.618Z,9.98
2023-05-09T15:48:25.294Z,9.86
2023-05-09T15:50:56.405Z,9.96
2023-05-09T15:53:28.039Z,9.96
2023-05-09T15:55:59.057Z,9.97
2023-05-09T15:58:29.918Z,9.97
2023-05-09T16:01:00.734Z,9.97
2023-05-09T16:03:34.157Z,9.98
2023-05-09T16:06:05.502Z,9.98
2023-05-09T16:08:36.276Z,9.99
2023-05-09T16:11:07.672Z,10.00
2023-05-09T16:13:38.280Z,10.00
2023-05-09T16:16:09.577Z,10.00
2023-05-09T16:18:42.920Z,9.93
2023-05-09T16:21:13.920Z,9.48
2023-05-09T16:23:44.798Z,8.82
2023-05-09T16:26:15.778Z,8.21
2023-05-09T16:28:46.568Z,7.77
2023-05-09T16:31:17.464Z,7.57
2023-05-09T16:33:51.053Z,7.49
2023-05-09T16:36:22.366Z,7.45
2023-05-09T16:38:53.236Z,7.43
2023-05-09T16:41:24.008Z,7.42
2023-05-09T16:43:54.786Z,7.65
2023-05-09T16:46:25.634Z,7.79
2023-05-09T16:48:58.990Z,7.94
2023-05-09T16:51:29.753Z,8.11
2023-05-09T16:54:00.683Z,8.23
2023-05-09T16:56:31.519Z,8.36
2023-05-09T16:59:02.296Z,8.47
2023-05-09T17:01:33.632Z,8.57
2023-05-09T17:04:07.161Z,8.67
2023-05-09T17:06:38.165Z,8.75
2023-05-09T17:09:09.210Z,8.85
2023-05-09T17:11:40.179Z,8.92
2023-05-09T17:14:11.077Z,9.00
2023-05-09T17:16:43.211Z,9.07
2023-05-09T17:19:16.967Z,9.14
2023-05-09T17:21:47.599Z,9.16
2023-05-09T17:24:18.385Z,9.24
2023-05-09T17:26:50.512Z,9.27
2023-05-09T17:29:21.345Z,9.31
2023-05-09T17:31:52.403Z,9.34
2023-05-09T17:34:25.957Z,9.36
2023-05-09T17:36:56.798Z,9.40
2023-05-09T17:39:28.831Z,9.44
2023-05-09T17:41:59.649Z,9.31
2023-05-09T17:44:30.557Z,9.29
2023-05-09T17:47:01.507Z,9.11
2023-05-09T17:49:34.932Z,9.08
2023-05-09T17:52:05.735Z,8.92
2023-05-09T17:54:36.732Z,8.91
2023-05-09T17:57:07.788Z,8.82
2023-05-09T17:59:40.768Z,8.81
2023-05-09T18:02:11.598Z,8.72
2023-05-09T18:04:46.649Z,8.73
2023-05-09T18:07:17.391Z,8.67
2023-05-09T18:09:48.289Z,8.71
2023-05-09T18:12:19.164Z,8.63
2023-05-09T18:14:50.005Z,8.73
2023-05-09T18:17:20.854Z,8.70
2023-05-09T18:19:54.310Z,8.74
2023-05-09T18:22:25.602Z,8.67
2023-05-09T18:24:56.583Z,8.72
2023-05-09T18:27:27.875Z,8.66
2023-05-09T18:29:58.664Z,8.55
2023-05-09T18:32:30.258Z,8.40
2023-05-09T18:35:04.412Z,8.42
2023-05-09T18:37:35.976Z,8.30
2023-05-09T18:40:07.357Z,8.43
2023-05-09T18:42:38.027Z,8.41
2023-05-09T18:45:10.279Z,8.47
2023-05-09T18:47:41.491Z,8.44
2023-05-09T18:50:16.654Z,8.40
2023-05-09T18:52:47.557Z,8.21
2023-05-09T18:55:20.047Z,8.02
2023-05-09T18:57:51.001Z,7.87
2023-05-09T19:00:21.971Z,7.75
2023-05-09T19:02:52.936Z,7.78
2023-05-09T19:05:27.719Z,7.87
2023-05-09T19:07:58.579Z,7.83
2023-05-09T19:10:29.558Z,8.00
2023-05-09T19:13:00.369Z,7.91
2023-05-09T19:15:31.167Z,8.01
2023-05-09T19:18:02.038Z,8.03
2023-05-09T19:20:35.573Z,8.12
2023-05-09T19:23:06.236Z,8.14
2023-05-09T19:25:38.015Z,8.22
2023-05-09T19:28:08.909Z,8.15
2023-05-09T19:30:39.734Z,7.79
2023-05-09T19:33:10.527Z,7.30
2023-05-09T19:35:44.640Z,6.97
2023-05-09T19:38:15.379Z,6.87
2023-05-09T19:40:46.290Z,7.07
2023-05-09T19:43:17.028Z,7.21
2023-05-09T19:45:47.782Z,7.30
2023-05-09T19:48:18.535Z,7.29
2023-05-09T19:50:52.107Z,7.01
2023-05-09T19:53:22.888Z,7.06
2023-05-09T19:55:53.791Z,7.18
2023-05-09T19:58:24.586Z,7.28
2023-05-09T20:00:55.390Z,7.44
2023-05-09T20:03:26.325Z,7.58
2023-05-09T20:05:59.892Z,7.71
2023-05-09T20:08:31.460Z,7.82
2023-05-09T20:11:02.432Z,7.94
2023-05-09T20:13:33.210Z,8.06
2023-05-09T20:16:04.585Z,8.15
2023-05-09T20:18:35.892Z,8.22
2023-05-09T20:21:10.718Z,8.30
2023-05-09T20:23:41.450Z,8.36
2023-05-09T20:26:12.176Z,8.45
2023-05-09T20:28:42.838Z,8.49
2023-05-09T20:31:13.669Z,8.53
2023-05-09T20:33:44.403Z,8.60
2023-05-09T20:36:17.822Z,8.65
2023-05-09T20:38:48.454Z,8.69
2023-05-09T20:41:19.200Z,8.74
2023-05-09T20:43:49.884Z,8.78
2023-05-09T20:46:20.791Z,8.82
2023-05-09T20:48:51.650Z,8.86
2023-05-09T20:51:25.146Z,8.79
2023-05-09T20:53:56.005Z,8.74
2023-05-09T20:56:28.896Z,8.61
2023-05-09T20:59:01.217Z,8.57
2023-05-09T21:01:35.753Z,8.37
2023-05-09T21:04:08.591Z,8.42
2023-05-09T21:06:41.998Z,8.25
2023-05-09T21:09:12.949Z,7.83
2023-05-09T21:11:43.923Z,7.33
2023-05-09T21:14:14.966Z,6.97
2023-05-09T21:16:47.007Z,6.82
2023-05-09T21:19:17.759Z,6.75
2023-05-09T21:21:51.193Z,6.73
2023-05-09T21:24:21.920Z,6.72
2023-05-09T21:26:52.662Z,6.69
2023-05-09T21:29:23.673Z,6.65
2023-05-09T21:31:54.426Z,6.63
2023-05-09T21:34:25.151Z,6.64
2023-05-09T21:36:58.485Z,6.92
2023-05-09T21:39:29.180Z,7.07
2023-05-09T21:42:00.530Z,7.25
2023-05-09T21:44:31.259Z,7.40
2023-05-09T21:47:02.193Z,7.52
2023-05-09T21:49:32.948Z,7.64
2023-05-09T21:52:06.657Z,7.72
2023-05-09T21:54:37.407Z,7.81
2023-05-09T21:57:08.786Z,7.89
2023-05-09T21:59:40.099Z,8.01
2023-05-09T22:02:10.976Z,8.09
2023-05-09T22:04:42.099Z,8.18
2023-05-09T22:07:16.054Z,8.26
2023-05-09T22:09:46.851Z,8.33
2023-05-09T22:12:17.715Z,8.40
2023-05-09T22:14:55.677Z,8.44
2023-05-09T22:17:27.219Z,8.51
2023-05-09T22:19:57.916Z,8.56
2023-05-09T22:22:32.252Z,8.61
2023-05-09T22:25:03.185Z,8.66
2023-05-09T22:27:35.057Z,8.69
2023-05-09T22:30:05.951Z,8.73
2023-05-09T22:32:37.345Z,8.73
2023-05-09T22:35:09.072Z,8.75
2023-05-09T22:37:44.394Z,8.75
2023-05-09T22:40:16.807Z,8.77
2023-05-09T22:42:47.873Z,8.80
2023-05-09T22:45:18.700Z,8.80
2023-05-09T22:47:49.588Z,8.82
2023-05-09T22:50:20.686Z,8.83
2023-05-09T22:52:54.189Z,8.85
2023-05-09T22:55:25.106Z,8.77
2023-05-09T22:57:55.953Z,8.70
2023-05-09T23:00:26.668Z,8.57
2023-05-09T23:02:57.555Z,8.48
2023-05-09T23:05:28.458Z,8.37
2023-05-09T23:08:02.040Z,8.34
2023-05-09T23:10:32.989Z,8.26
2023-05-09T23:13:05.031Z,8.23
2023-05-09T23:15:36.264Z,8.16
2023-05-09T23:18:07.616Z,8.14
2023-05-09T23:20:39.306Z,8.10
2023-05-09T23:23:12.716Z,8.03
2023-05-09T23:25:44.693Z,8.11
2023-05-09T23:28:15.522Z,8.14
2023-05-09T23:30:46.256Z,8.13
2023-05-09T23:33:17.173Z,8.15
2023-05-09T23:35:48.010Z,8.13
2023-05-09T23:38:22.902Z,8.16
2023-05-09T23:40:53.713Z,8.13
2023-05-09T23:43:24.413Z,8.04
2023-05-09T23:45:56.237Z,7.86
2023-05-09T23:48:27.199Z,7.85
2023-05-09T23:50:57.900Z,7.89
2023-05-09T23:53:31.639Z,7.92
2023-05-09T23:56:02.626Z,7.92
2023-05-09T23:58:33.419Z,7.93
